createdAt,value
2019-02-20T00:00:00.362Z,10.10
2019-02-20T00:01:00.144Z,6.40
2019-02-20T00:02:00.074Z,5.90
2019-02-20T00:03:00.067Z,6.80
2019-02-20T00:04:00.065Z,7.20
2019-02-20T00:05:00.093Z,6.40
2019-02-20T00:06:00.084Z,6.20
2019-02-20T00:07:00.025Z,6.20
2019-02-20T00:08:00.011Z,5.80
2019-02-20T00:09:00.523Z,5.70
2019-02-20T00:09:59.989Z,6.30
2019-02-20T00:10:59.981Z,8.00
2019-02-20T00:12:00.007Z,8.00
2019-02-20T00:12:59.949Z,5.90
2019-02-20T00:13:59.948Z,6.90
2019-02-20T00:14:59.925Z,5.30
2019-02-20T00:15:59.827Z,5.70
2019-02-20T00:16:59.965Z,8.20
2019-02-20T00:17:59.894Z,6.80
2019-02-20T00:18:59.891Z,6.80
2019-02-20T00:19:59.876Z,7.30
2019-02-20T00:20:59.872Z,5.30
2019-02-20T00:21:59.850Z,5.00
2019-02-20T00:22:59.896Z,6.90
2019-02-20T00:23:59.827Z,5.40
2019-02-20T00:24:59.814Z,5.80
2019-02-20T00:25:59.811Z,6.20
2019-02-20T00:26:59.795Z,6.20
2019-02-20T00:27:59.790Z,7.10
2019-02-20T00:28:59.804Z,7.00
2019-02-20T00:29:59.760Z,5.60
2019-02-20T00:30:59.763Z,6.30
2019-02-20T00:31:59.747Z,6.60
2019-02-20T00:32:59.793Z,6.10
2019-02-20T00:33:59.614Z,6.60
2019-02-20T00:34:59.712Z,6.00
2019-02-20T00:35:59.698Z,6.70
2019-02-20T00:36:59.691Z,6.90
2019-02-20T00:37:59.677Z,7.50
2019-02-20T00:38:59.709Z,6.00
2019-02-20T00:39:59.657Z,5.90
2019-02-20T00:40:59.633Z,7.50
2019-02-20T00:41:59.625Z,6.10
2019-02-20T00:42:59.617Z,6.40
2019-02-20T00:43:59.606Z,6.40
2019-02-20T00:44:59.656Z,4.80
2019-02-20T00:45:59.594Z,5.40
2019-02-20T00:46:59.588Z,7.00
2019-02-20T00:47:59.568Z,7.40
2019-02-20T00:48:59.478Z,5.70
2019-02-20T00:49:59.574Z,5.60
2019-02-20T00:50:59.591Z,5.00
2019-02-20T00:51:59.539Z,7.90
2019-02-20T00:52:59.513Z,6.20
2019-02-20T00:53:59.527Z,6.40
2019-02-20T00:54:59.497Z,6.10
2019-02-20T00:55:59.489Z,7.90
2019-02-20T00:56:59.869Z,4.80
2019-02-20T00:57:59.455Z,4.90
2019-02-20T00:58:59.445Z,5.30
2019-02-20T00:59:59.332Z,5.90
2019-02-20T01:00:59.326Z,7.10
2019-02-20T01:01:59.405Z,4.90
2019-02-20T01:02:59.417Z,5.50
2019-02-20T01:03:59.390Z,8.10
2019-02-20T01:04:59.423Z,5.40
2019-02-20T01:05:59.362Z,5.30
2019-02-20T01:06:59.353Z,6.70
2019-02-20T01:07:59.346Z,6.20
2019-02-20T01:08:59.386Z,6.90
2019-02-20T01:09:59.364Z,6.10
2019-02-20T01:10:59.302Z,5.20
2019-02-20T01:11:59.291Z,5.50
2019-02-20T01:12:59.190Z,4.90
2019-02-20T01:13:59.280Z,5.00
2019-02-20T01:14:59.256Z,5.50
2019-02-20T01:15:59.295Z,5.50
2019-02-20T01:16:59.265Z,6.00
2019-02-20T01:17:59.219Z,4.40
2019-02-20T01:18:59.214Z,6.10
2019-02-20T01:19:59.212Z,5.40
2019-02-20T01:20:59.201Z,4.60
2019-02-20T01:21:59.231Z,5.20
2019-02-20T01:23:00.049Z,5.80
2019-02-20T01:23:59.180Z,5.00
2019-02-20T01:24:59.160Z,5.00
2019-02-20T01:25:59.188Z,5.70
2019-02-20T01:26:59.129Z,4.70
2019-02-20T01:27:59.116Z,5.70
2019-02-20T01:28:59.109Z,4.70
2019-02-20T01:29:59.110Z,6.70
2019-02-20T01:30:59.004Z,5.70
2019-02-20T01:31:59.119Z,5.90
2019-02-20T01:32:58.965Z,5.40
2019-02-20T01:33:59.061Z,5.70
2019-02-20T01:34:59.051Z,5.10
2019-02-20T01:35:59.038Z,4.90
2019-02-20T01:36:59.062Z,5.80
2019-02-20T01:37:59.012Z,6.30
2019-02-20T01:38:59.009Z,4.90
2019-02-20T01:39:59.000Z,4.30
2019-02-20T01:40:58.990Z,5.40
2019-02-20T01:41:58.966Z,5.20
2019-02-20T01:42:58.987Z,7.10
2019-02-20T01:43:58.952Z,5.10
2019-02-20T01:44:58.935Z,4.90
2019-02-20T01:45:58.916Z,5.90
2019-02-20T01:46:58.820Z,4.80
2019-02-20T01:47:58.828Z,4.20
2019-02-20T01:48:58.880Z,5.20
2019-02-20T01:49:58.876Z,5.80
2019-02-20T01:50:58.869Z,5.80
2019-02-20T01:51:58.862Z,4.90
2019-02-20T01:52:58.898Z,4.60
2019-02-20T01:53:58.829Z,4.90
2019-02-20T01:54:58.823Z,5.00
2019-02-20T01:55:58.810Z,5.10
2019-02-20T01:56:58.708Z,6.10
2019-02-20T01:57:58.786Z,4.50
2019-02-20T01:58:58.730Z,4.80
2019-02-20T01:59:58.770Z,5.40
2019-02-20T02:00:58.754Z,4.50
2019-02-20T02:01:58.745Z,5.40
2019-02-20T02:02:58.740Z,5.60
2019-02-20T02:03:58.728Z,4.90
2019-02-20T02:04:58.764Z,5.80
2019-02-20T02:05:58.707Z,4.60
2019-02-20T02:06:58.693Z,4.20
2019-02-20T02:07:58.685Z,4.20
2019-02-20T02:08:59.707Z,4.50
2019-02-20T02:09:58.662Z,5.20
2019-02-20T02:10:58.691Z,5.20
2019-02-20T02:11:58.632Z,5.60
2019-02-20T02:12:58.619Z,5.90
2019-02-20T02:13:58.617Z,5.40
2019-02-20T02:14:58.610Z,4.60
2019-02-20T02:15:58.500Z,5.60
2019-02-20T02:16:58.618Z,5.30
2019-02-20T02:17:58.566Z,4.30
2019-02-20T02:18:58.570Z,4.60
2019-02-20T02:19:58.546Z,4.80
2019-02-20T02:20:58.548Z,4.10
2019-02-20T02:21:58.527Z,3.80
2019-02-20T02:22:58.556Z,4.30
2019-02-20T02:23:58.515Z,4.40
2019-02-20T02:24:58.500Z,4.90
2019-02-20T02:25:58.471Z,4.60
2019-02-20T02:26:58.471Z,5.30
2019-02-20T02:27:58.476Z,4.60
2019-02-20T02:28:58.463Z,4.10
2019-02-20T02:29:58.464Z,4.90
2019-02-20T02:30:58.424Z,5.20
2019-02-20T02:31:58.424Z,5.00
2019-02-20T02:32:58.407Z,5.00
2019-02-20T02:33:58.394Z,5.00
2019-02-20T02:34:58.448Z,4.70
2019-02-20T02:35:58.367Z,4.20
2019-02-20T02:36:58.421Z,5.00
2019-02-20T02:37:58.354Z,4.50
2019-02-20T02:38:58.358Z,3.80
2019-02-20T02:39:58.323Z,5.20
2019-02-20T02:40:58.379Z,4.80
2019-02-20T02:41:58.305Z,4.30
2019-02-20T02:42:58.295Z,4.10
2019-02-20T02:43:58.271Z,4.80
2019-02-20T02:44:58.271Z,4.90
2019-02-20T02:45:58.261Z,4.70
2019-02-20T02:46:58.270Z,4.10
2019-02-20T02:47:58.242Z,5.00
2019-02-20T02:48:58.231Z,4.00
2019-02-20T02:49:58.221Z,4.50
2019-02-20T02:50:58.244Z,4.70
2019-02-20T02:51:58.186Z,4.40
2019-02-20T02:52:58.178Z,4.10
2019-02-20T02:53:58.162Z,4.50
2019-02-20T02:54:58.152Z,4.30
2019-02-20T02:55:58.144Z,5.50
2019-02-20T02:56:58.082Z,4.90
2019-02-20T02:57:58.136Z,4.70
2019-02-20T02:58:58.121Z,4.20
2019-02-20T02:59:58.105Z,5.60
2019-02-20T03:00:57.996Z,4.90
2019-02-20T03:01:58.115Z,5.90
2019-02-20T03:02:58.067Z,4.20
2019-02-20T03:03:58.054Z,4.30
2019-02-20T03:04:58.047Z,4.10
2019-02-20T03:05:58.045Z,4.00
2019-02-20T03:06:58.083Z,4.40
2019-02-20T03:07:58.031Z,4.20
2019-02-20T03:08:57.987Z,3.90
2019-02-20T03:09:57.992Z,4.00
2019-02-20T03:10:57.990Z,3.90
2019-02-20T03:11:57.969Z,4.00
2019-02-20T03:12:57.900Z,4.30
2019-02-20T03:13:57.950Z,4.70
2019-02-20T03:14:57.934Z,5.10
2019-02-20T03:15:57.926Z,3.90
2019-02-20T03:16:57.922Z,4.70
2019-02-20T03:17:57.961Z,4.00
2019-02-20T03:18:57.916Z,3.90
2019-02-20T03:19:57.895Z,4.10
2019-02-20T03:20:57.875Z,4.80
2019-02-20T03:21:57.865Z,3.80
2019-02-20T03:22:57.852Z,4.50
2019-02-20T03:23:58.453Z,4.60
2019-02-20T03:24:57.850Z,4.60
2019-02-20T03:25:57.722Z,4.20
2019-02-20T03:26:57.813Z,3.50
2019-02-20T03:27:57.792Z,4.40
2019-02-20T03:28:57.832Z,4.30
2019-02-20T03:29:57.764Z,4.70
2019-02-20T03:30:57.657Z,4.20
2019-02-20T03:31:57.743Z,5.00
2019-02-20T03:32:57.745Z,4.80
2019-02-20T03:33:57.731Z,4.10
2019-02-20T03:34:57.753Z,4.20
2019-02-20T03:35:57.706Z,4.50
2019-02-20T03:36:57.699Z,4.20
2019-02-20T03:37:57.676Z,5.00
2019-02-20T03:38:57.680Z,3.50
2019-02-20T03:39:57.664Z,4.10
2019-02-20T03:40:57.694Z,3.80
2019-02-20T03:41:57.643Z,4.50
2019-02-20T03:42:57.624Z,4.10
2019-02-20T03:43:57.615Z,4.10
2019-02-20T03:44:57.637Z,4.10
2019-02-20T03:45:57.599Z,4.10
2019-02-20T03:46:57.631Z,4.70
2019-02-20T03:47:57.584Z,4.10
2019-02-20T03:48:57.561Z,4.00
2019-02-20T03:49:57.547Z,3.30
2019-02-20T03:50:57.541Z,5.10
2019-02-20T03:51:57.519Z,5.00
2019-02-20T03:52:57.455Z,3.50
2019-02-20T03:53:57.504Z,4.20
2019-02-20T03:54:57.496Z,4.90
2019-02-20T03:55:57.486Z,4.50
2019-02-20T03:56:57.385Z,4.20
2019-02-20T03:57:57.513Z,5.30
2019-02-20T03:58:57.445Z,4.60
2019-02-20T03:59:57.474Z,4.30
2019-02-20T04:00:57.426Z,3.70
2019-02-20T04:01:57.433Z,4.50
2019-02-20T04:02:57.407Z,4.30
2019-02-20T04:03:57.424Z,3.70
2019-02-20T04:04:57.386Z,4.40
2019-02-20T04:05:57.390Z,4.20
2019-02-20T04:06:57.361Z,4.80
2019-02-20T04:07:57.347Z,4.00
2019-02-20T04:08:57.378Z,4.40
2019-02-20T04:09:57.325Z,3.60
2019-02-20T04:10:57.225Z,4.00
2019-02-20T04:11:57.316Z,4.50
2019-02-20T04:12:57.296Z,4.30
2019-02-20T04:13:57.296Z,3.60
2019-02-20T04:14:57.224Z,3.70
2019-02-20T04:15:57.257Z,4.00
2019-02-20T04:16:57.249Z,4.30
2019-02-20T04:17:57.236Z,3.80
2019-02-20T04:18:57.225Z,3.70
2019-02-20T04:19:57.231Z,3.90
2019-02-20T04:20:57.235Z,3.60
2019-02-20T04:21:57.189Z,3.70
2019-02-20T04:22:57.185Z,3.70
2019-02-20T04:24:02.286Z,3.30
2019-02-20T04:24:58.157Z,4.10
2019-02-20T04:25:57.107Z,4.00
2019-02-20T04:26:57.137Z,3.80
2019-02-20T04:27:57.151Z,4.30
2019-02-20T04:28:57.118Z,4.10
2019-02-20T04:29:57.114Z,3.90
2019-02-20T04:30:57.103Z,3.40
2019-02-20T04:31:57.132Z,4.00
2019-02-20T04:32:58.486Z,3.70
2019-02-20T04:33:57.080Z,3.90
2019-02-20T04:34:57.062Z,4.80
2019-02-20T04:35:57.038Z,3.60
2019-02-20T04:36:57.051Z,3.70
2019-02-20T04:37:57.061Z,3.90
2019-02-20T04:38:57.027Z,4.60
2019-02-20T04:39:57.008Z,5.10
2019-02-20T04:40:56.997Z,3.60
2019-02-20T04:41:56.979Z,3.70
2019-02-20T04:42:58.506Z,5.20
2019-02-20T04:43:57.002Z,3.60
2019-02-20T04:44:56.988Z,3.40
2019-02-20T04:45:56.924Z,4.20
2019-02-20T04:46:56.916Z,4.10
2019-02-20T04:47:56.961Z,3.60
2019-02-20T04:48:56.906Z,3.70
2019-02-20T04:49:56.786Z,3.60
2019-02-20T04:50:56.875Z,3.80
2019-02-20T04:51:56.860Z,4.00
2019-02-20T04:52:56.859Z,3.70
2019-02-20T04:53:56.891Z,3.30
2019-02-20T04:54:56.867Z,3.50
2019-02-20T04:55:56.822Z,3.60
2019-02-20T04:56:56.809Z,3.70
2019-02-20T04:57:56.821Z,4.30
2019-02-20T04:58:56.800Z,3.40
2019-02-20T04:59:56.842Z,3.70
2019-02-20T05:00:56.770Z,4.50
2019-02-20T05:01:56.761Z,3.70
2019-02-20T05:02:56.784Z,4.30
2019-02-20T05:03:56.739Z,3.90
2019-02-20T05:04:56.729Z,3.30
2019-02-20T05:05:56.759Z,4.30
2019-02-20T05:06:56.722Z,3.90
2019-02-20T05:07:56.683Z,3.90
2019-02-20T05:08:56.681Z,3.50
2019-02-20T05:09:56.670Z,3.40
2019-02-20T05:10:56.670Z,4.00
2019-02-20T05:11:56.695Z,4.30
2019-02-20T05:12:56.643Z,3.50
2019-02-20T05:13:56.632Z,4.00
2019-02-20T05:14:56.511Z,3.50
2019-02-20T05:15:56.602Z,3.50
2019-02-20T05:16:56.591Z,3.90
2019-02-20T05:17:56.606Z,4.10
2019-02-20T05:18:56.460Z,3.80
2019-02-20T05:19:56.464Z,5.80
2019-02-20T05:20:56.445Z,3.80
2019-02-20T05:21:56.539Z,3.80
2019-02-20T05:22:56.476Z,3.70
2019-02-20T05:23:56.528Z,3.70
2019-02-20T05:24:56.406Z,3.50
2019-02-20T05:25:56.380Z,3.80
2019-02-20T05:26:56.390Z,3.80
2019-02-20T05:27:56.481Z,4.00
2019-02-20T05:28:56.419Z,4.30
2019-02-20T05:29:56.452Z,5.50
2019-02-20T05:30:56.340Z,3.80
2019-02-20T05:31:56.425Z,3.50
2019-02-20T05:32:56.319Z,3.40
2019-02-20T05:33:56.407Z,3.60
2019-02-20T05:34:56.439Z,4.30
2019-02-20T05:35:56.381Z,4.40
2019-02-20T05:36:56.373Z,3.70
2019-02-20T05:37:56.393Z,3.70
2019-02-20T05:38:56.368Z,3.60
2019-02-20T05:39:56.359Z,3.50
2019-02-20T05:40:56.372Z,3.90
2019-02-20T05:41:56.337Z,4.20
2019-02-20T05:42:56.314Z,4.70
2019-02-20T05:43:56.293Z,4.50
2019-02-20T05:44:56.276Z,3.90
2019-02-20T05:45:56.282Z,3.50
2019-02-20T05:46:56.291Z,3.80
2019-02-20T05:47:56.254Z,3.50
2019-02-20T05:48:56.241Z,3.70
2019-02-20T05:49:56.230Z,3.30
2019-02-20T05:50:56.113Z,3.40
2019-02-20T05:51:56.242Z,3.60
2019-02-20T05:52:56.196Z,4.10
2019-02-20T05:53:56.179Z,3.40
2019-02-20T05:54:56.179Z,3.50
2019-02-20T05:55:56.159Z,3.50
2019-02-20T05:56:56.173Z,3.70
2019-02-20T05:57:56.165Z,3.70
2019-02-20T05:58:56.036Z,3.30
2019-02-20T05:59:56.113Z,3.90
2019-02-20T06:00:57.078Z,4.20
2019-02-20T06:01:56.097Z,3.70
2019-02-20T06:02:56.001Z,4.20
2019-02-20T06:03:56.062Z,3.50
2019-02-20T06:04:56.018Z,4.10
2019-02-20T06:05:56.065Z,3.40
2019-02-20T06:06:56.041Z,3.90
2019-02-20T06:07:56.063Z,4.10
2019-02-20T06:08:56.017Z,4.10
2019-02-20T06:09:56.005Z,3.80
2019-02-20T06:10:56.001Z,3.60
2019-02-20T06:11:55.992Z,3.70
2019-02-20T06:12:55.986Z,3.20
2019-02-20T06:13:56.008Z,3.50
2019-02-20T06:14:55.950Z,3.40
2019-02-20T06:15:55.950Z,3.60
2019-02-20T06:16:55.933Z,4.10
2019-02-20T06:17:55.918Z,3.40
2019-02-20T06:18:55.919Z,3.90
2019-02-20T06:19:55.941Z,3.70
2019-02-20T06:20:55.889Z,3.80
2019-02-20T06:21:55.880Z,3.80
2019-02-20T06:22:55.779Z,3.50
2019-02-20T06:23:55.848Z,3.40
2019-02-20T06:24:55.892Z,4.30
2019-02-20T06:25:55.891Z,4.20
2019-02-20T06:26:55.818Z,3.60
2019-02-20T06:27:55.812Z,3.50
2019-02-20T06:28:55.797Z,3.40
2019-02-20T06:29:55.806Z,3.90
2019-02-20T06:30:55.785Z,3.40
2019-02-20T06:31:55.809Z,4.20
2019-02-20T06:32:55.765Z,3.10
2019-02-20T06:33:55.742Z,3.10
2019-02-20T06:34:55.731Z,3.80
2019-02-20T06:35:55.726Z,3.60
2019-02-20T06:36:55.712Z,3.70
2019-02-20T06:37:55.726Z,3.60
2019-02-20T06:38:55.701Z,3.70
2019-02-20T06:39:55.685Z,3.60
2019-02-20T06:40:55.677Z,3.80
2019-02-20T06:41:55.667Z,3.40
2019-02-20T06:42:55.693Z,3.50
2019-02-20T06:43:55.640Z,3.70
2019-02-20T06:44:55.525Z,4.00
2019-02-20T06:45:56.903Z,3.60
2019-02-20T06:46:55.488Z,3.70
2019-02-20T06:47:55.488Z,3.50
2019-02-20T06:48:55.519Z,4.10
2019-02-20T06:49:55.465Z,4.10
2019-02-20T06:50:55.456Z,3.60
2019-02-20T06:51:55.476Z,3.70
2019-02-20T06:52:55.462Z,4.20
2019-02-20T06:53:55.531Z,3.80
2019-02-20T06:54:55.562Z,3.60
2019-02-20T06:55:55.521Z,3.40
2019-02-20T06:56:55.406Z,4.10
2019-02-20T06:57:55.389Z,3.90
2019-02-20T06:58:55.412Z,3.50
2019-02-20T06:59:55.367Z,3.30
2019-02-20T07:00:55.343Z,3.80
2019-02-20T07:01:55.433Z,3.70
2019-02-20T07:02:55.338Z,3.50
2019-02-20T07:03:55.310Z,3.70
2019-02-20T07:04:55.343Z,3.90
2019-02-20T07:05:55.285Z,3.40
2019-02-20T07:06:55.281Z,4.10
2019-02-20T07:07:55.374Z,3.40
2019-02-20T07:08:55.260Z,4.60
2019-02-20T07:09:55.288Z,3.60
2019-02-20T07:10:55.231Z,4.00
2019-02-20T07:11:55.218Z,3.60
2019-02-20T07:12:55.213Z,3.60
2019-02-20T07:13:55.211Z,4.40
2019-02-20T07:14:55.206Z,5.30
2019-02-20T07:15:55.222Z,4.50
2019-02-20T07:16:55.168Z,4.50
2019-02-20T07:17:55.158Z,3.50
2019-02-20T07:18:55.256Z,4.10
2019-02-20T07:19:55.232Z,4.50
2019-02-20T07:20:55.172Z,6.10
2019-02-20T07:21:55.119Z,5.30
2019-02-20T07:22:55.098Z,6.80
2019-02-20T07:23:55.196Z,4.60
2019-02-20T07:25:02.812Z,4.60
2019-02-20T07:25:56.215Z,6.70
2019-02-20T07:26:55.080Z,5.40
2019-02-20T07:27:55.394Z,6.40
2019-02-20T07:28:55.035Z,7.30
2019-02-20T07:29:55.123Z,5.60
2019-02-20T07:30:55.034Z,7.30
2019-02-20T07:31:55.038Z,5.80
2019-02-20T07:32:55.003Z,6.60
2019-02-20T07:33:55.085Z,5.10
2019-02-20T07:34:54.965Z,6.00
2019-02-20T07:35:54.964Z,5.50
2019-02-20T07:36:55.013Z,6.50
2019-02-20T07:37:55.207Z,6.60
2019-02-20T07:38:54.924Z,6.10
2019-02-20T07:39:54.923Z,7.20
2019-02-20T07:40:54.907Z,7.60
2019-02-20T07:41:54.889Z,6.20
2019-02-20T07:42:54.905Z,7.40
2019-02-20T07:43:54.990Z,6.70
2019-02-20T07:44:54.870Z,5.20
2019-02-20T07:45:54.844Z,5.60
2019-02-20T07:46:54.891Z,6.90
2019-02-20T07:47:54.877Z,6.30
2019-02-20T07:48:54.830Z,5.70
2019-02-20T07:49:54.796Z,5.90
2019-02-20T07:50:54.791Z,5.30
2019-02-20T07:51:54.795Z,7.70
2019-02-20T07:52:54.769Z,7.40
2019-02-20T07:53:54.789Z,6.20
2019-02-20T07:54:54.754Z,7.00
2019-02-20T07:55:54.742Z,6.90
2019-02-20T07:56:54.738Z,7.20
2019-02-20T07:57:54.778Z,5.60
2019-02-20T07:58:54.763Z,5.30
2019-02-20T07:59:54.713Z,8.00
2019-02-20T08:00:54.693Z,6.80
2019-02-20T08:01:54.745Z,7.00
2019-02-20T08:02:54.784Z,5.70
2019-02-20T08:03:54.788Z,7.10
2019-02-20T08:04:54.746Z,6.50
2019-02-20T08:05:54.745Z,6.80
2019-02-20T08:06:54.726Z,6.40
2019-02-20T08:07:54.719Z,6.30
2019-02-20T08:08:54.738Z,6.10
2019-02-20T08:09:54.690Z,6.20
2019-02-20T08:10:54.576Z,6.60
2019-02-20T08:11:54.582Z,5.30
2019-02-20T08:12:54.669Z,4.80
2019-02-20T08:13:54.683Z,8.60
2019-02-20T08:14:54.635Z,6.80
2019-02-20T08:15:54.629Z,6.50
2019-02-20T08:16:54.614Z,5.60
2019-02-20T08:17:54.618Z,4.90
2019-02-20T08:18:54.590Z,7.60
2019-02-20T08:19:54.611Z,6.30
2019-02-20T08:20:54.570Z,6.80
2019-02-20T08:21:54.555Z,6.40
2019-02-20T08:22:54.459Z,9.10
2019-02-20T08:23:54.551Z,8.30
2019-02-20T08:24:54.553Z,12.40
2019-02-20T08:25:54.519Z,8.90
2019-02-20T08:26:54.508Z,9.40
2019-02-20T08:27:54.496Z,8.00
2019-02-20T08:28:54.477Z,7.90
2019-02-20T08:29:54.521Z,13.10
2019-02-20T08:30:54.481Z,6.30
2019-02-20T08:31:54.465Z,6.90
2019-02-20T08:32:54.442Z,8.90
2019-02-20T08:33:54.431Z,5.90
2019-02-20T08:34:54.418Z,8.00
2019-02-20T08:35:54.356Z,8.00
2019-02-20T08:36:54.302Z,7.00
2019-02-20T08:37:54.306Z,5.10
2019-02-20T08:38:54.365Z,6.60
2019-02-20T08:39:54.381Z,6.70
2019-02-20T08:40:54.354Z,8.50
2019-02-20T08:41:54.388Z,7.30
2019-02-20T08:42:54.334Z,6.50
2019-02-20T08:43:54.322Z,7.10
2019-02-20T08:44:54.313Z,7.90
2019-02-20T08:45:54.295Z,8.10
2019-02-20T08:46:54.307Z,6.70
2019-02-20T08:47:54.332Z,6.70
2019-02-20T08:48:54.273Z,7.60
2019-02-20T08:49:54.510Z,5.40
2019-02-20T08:50:54.253Z,6.80
2019-02-20T08:51:54.224Z,7.90
2019-02-20T08:52:54.242Z,5.90
2019-02-20T08:53:54.271Z,6.90
2019-02-20T08:54:54.217Z,7.20
2019-02-20T08:55:54.178Z,6.70
2019-02-20T08:56:54.169Z,6.40
2019-02-20T08:57:54.183Z,5.50
2019-02-20T08:58:54.152Z,4.80
2019-02-20T08:59:54.196Z,6.00
2019-02-20T09:00:54.159Z,6.00
2019-02-20T09:01:54.119Z,6.50
2019-02-20T09:02:54.113Z,6.10
2019-02-20T09:03:54.090Z,5.50
2019-02-20T09:04:54.842Z,5.90
2019-02-20T09:05:54.082Z,6.20
2019-02-20T09:06:54.061Z,7.00
2019-02-20T09:07:54.060Z,6.50
2019-02-20T09:08:54.045Z,7.40
2019-02-20T09:09:54.037Z,5.80
2019-02-20T09:10:54.071Z,5.10
2019-02-20T09:11:54.017Z,5.00
2019-02-20T09:12:54.014Z,7.60
2019-02-20T09:13:54.029Z,5.00
2019-02-20T09:14:53.993Z,5.90
2019-02-20T09:15:53.992Z,7.00
2019-02-20T09:16:54.060Z,6.00
2019-02-20T09:17:53.951Z,6.00
2019-02-20T09:18:53.977Z,6.00
2019-02-20T09:19:53.931Z,5.20
2019-02-20T09:20:53.906Z,6.90
2019-02-20T09:21:53.913Z,6.60
2019-02-20T09:22:53.927Z,5.50
2019-02-20T09:23:53.880Z,4.80
2019-02-20T09:24:53.869Z,4.80
2019-02-20T09:25:53.863Z,5.40
2019-02-20T09:26:53.857Z,6.20
2019-02-20T09:27:53.849Z,5.60
2019-02-20T09:28:53.856Z,4.80
2019-02-20T09:29:53.808Z,5.50
2019-02-20T09:30:53.800Z,4.60
2019-02-20T09:31:53.807Z,6.20
2019-02-20T09:32:53.781Z,4.40
2019-02-20T09:33:53.804Z,5.40
2019-02-20T09:34:53.781Z,6.60
2019-02-20T09:35:53.762Z,5.80
2019-02-20T09:36:53.733Z,5.50
2019-02-20T09:37:53.722Z,5.40
2019-02-20T09:38:53.762Z,5.70
2019-02-20T09:39:53.696Z,5.20
2019-02-20T09:40:53.691Z,7.20
2019-02-20T09:41:53.685Z,4.40
2019-02-20T09:42:53.679Z,6.20
2019-02-20T09:43:53.669Z,5.00
2019-02-20T09:44:53.676Z,5.70
2019-02-20T09:45:53.645Z,5.60
2019-02-20T09:46:53.640Z,5.80
2019-02-20T09:47:53.627Z,4.40
2019-02-20T09:48:53.611Z,6.00
2019-02-20T09:49:53.626Z,5.30
2019-02-20T09:50:53.596Z,4.20
2019-02-20T09:51:53.589Z,4.90
2019-02-20T09:52:53.578Z,5.60
2019-02-20T09:53:53.564Z,4.10
2019-02-20T09:54:53.587Z,6.40
2019-02-20T09:55:53.531Z,5.20
2019-02-20T09:56:53.535Z,4.10
2019-02-20T09:57:53.514Z,4.30
2019-02-20T09:58:53.511Z,4.90
2019-02-20T09:59:53.494Z,4.60
2019-02-20T10:00:53.528Z,4.30
2019-02-20T10:01:53.473Z,4.20
2019-02-20T10:02:53.445Z,4.70
2019-02-20T10:03:53.451Z,5.50
2019-02-20T10:04:53.438Z,5.10
2019-02-20T10:05:53.410Z,3.90
2019-02-20T10:06:53.455Z,5.40
2019-02-20T10:07:53.513Z,4.10
2019-02-20T10:08:53.384Z,4.70
2019-02-20T10:09:53.387Z,4.50
2019-02-20T10:10:53.371Z,4.70
2019-02-20T10:11:53.362Z,4.10
2019-02-20T10:12:53.402Z,5.00
2019-02-20T10:13:53.330Z,4.30
2019-02-20T10:14:53.319Z,4.40
2019-02-20T10:15:53.318Z,5.10
2019-02-20T10:16:54.061Z,4.30
2019-02-20T10:17:53.296Z,4.60
2019-02-20T10:18:53.339Z,4.00
2019-02-20T10:19:53.295Z,3.90
2019-02-20T10:20:53.254Z,4.70
2019-02-20T10:21:53.234Z,3.90
2019-02-20T10:22:53.238Z,4.30
2019-02-20T10:23:53.223Z,5.60
2019-02-20T10:24:53.252Z,4.50
2019-02-20T10:26:00.556Z,4.10
2019-02-20T10:27:00.372Z,3.80
2019-02-20T10:27:54.167Z,3.90
2019-02-20T10:28:54.100Z,4.20
2019-02-20T10:29:53.179Z,5.20
2019-02-20T10:30:53.192Z,4.30
2019-02-20T10:31:53.128Z,5.00
2019-02-20T10:32:53.121Z,4.00
2019-02-20T10:33:53.107Z,4.00
2019-02-20T10:34:53.097Z,4.10
2019-02-20T10:35:53.085Z,4.20
2019-02-20T10:36:53.119Z,4.60
2019-02-20T10:37:53.113Z,4.90
2019-02-20T10:38:53.076Z,4.20
2019-02-20T10:39:53.046Z,5.00
2019-02-20T10:40:53.042Z,4.10
2019-02-20T10:41:53.043Z,4.00
2019-02-20T10:42:53.063Z,3.80
2019-02-20T10:43:53.010Z,3.80
2019-02-20T10:44:52.990Z,5.10
2019-02-20T10:45:52.990Z,4.30
2019-02-20T10:46:52.998Z,5.10
2019-02-20T10:47:53.003Z,4.10
2019-02-20T10:48:52.939Z,3.80
2019-02-20T10:49:52.989Z,5.30
2019-02-20T10:50:52.917Z,4.20
2019-02-20T10:51:52.920Z,3.90
2019-02-20T10:52:52.911Z,3.80
2019-02-20T10:53:52.919Z,4.30
2019-02-20T10:54:57.766Z,4.20
2019-02-20T10:55:53.868Z,6.90
2019-02-20T10:56:52.845Z,3.60
2019-02-20T10:57:52.855Z,5.00
2019-02-20T10:58:52.887Z,4.00
2019-02-20T10:59:52.820Z,4.30
2019-02-20T11:00:52.828Z,4.30
2019-02-20T11:01:52.818Z,3.90
2019-02-20T11:02:52.789Z,5.90
2019-02-20T11:03:52.820Z,4.40
2019-02-20T11:04:52.797Z,4.70
2019-02-20T11:05:52.754Z,4.70
2019-02-20T11:06:52.785Z,3.60
2019-02-20T11:07:52.744Z,4.60
2019-02-20T11:08:52.724Z,4.60
2019-02-20T11:09:52.758Z,5.10
2019-02-20T11:10:52.713Z,3.90
2019-02-20T11:11:54.456Z,4.00
2019-02-20T11:12:52.679Z,3.90
2019-02-20T11:13:52.726Z,3.70
2019-02-20T11:14:52.673Z,4.20
2019-02-20T11:15:52.664Z,4.40
2019-02-20T11:16:52.642Z,3.70
2019-02-20T11:17:52.673Z,4.90
2019-02-20T11:18:52.606Z,4.10
2019-02-20T11:19:52.652Z,5.30
2019-02-20T11:20:52.583Z,4.00
2019-02-20T11:21:52.584Z,3.80
2019-02-20T11:22:52.558Z,4.60
2019-02-20T11:23:52.559Z,4.20
2019-02-20T11:24:53.831Z,4.50
2019-02-20T11:25:53.635Z,4.00
2019-02-20T11:26:55.171Z,4.70
2019-02-20T11:27:52.511Z,4.00
2019-02-20T11:28:52.506Z,5.10
2019-02-20T11:29:52.523Z,4.20
2019-02-20T11:30:52.479Z,3.90
2019-02-20T11:31:52.486Z,4.30
2019-02-20T11:32:52.454Z,4.00
2019-02-20T11:33:52.435Z,4.00
2019-02-20T11:34:52.465Z,3.60
2019-02-20T11:35:52.455Z,4.10
2019-02-20T11:36:52.434Z,4.30
2019-02-20T11:37:52.414Z,4.70
2019-02-20T11:38:52.397Z,3.80
2019-02-20T11:39:53.999Z,4.30
2019-02-20T11:40:52.414Z,3.80
2019-02-20T11:41:52.388Z,4.30
2019-02-20T11:42:52.344Z,4.50
2019-02-20T11:43:52.333Z,4.00
2019-02-20T11:44:52.336Z,3.80
2019-02-20T11:45:52.358Z,4.10
2019-02-20T11:46:52.313Z,3.70
2019-02-20T11:47:52.309Z,3.90
2019-02-20T11:48:52.299Z,3.80
2019-02-20T11:49:52.271Z,4.30
2019-02-20T11:50:52.255Z,4.10
2019-02-20T11:51:52.293Z,3.80
2019-02-20T11:52:52.245Z,3.90
2019-02-20T11:53:52.251Z,3.40
2019-02-20T11:54:52.229Z,4.40
2019-02-20T11:55:52.242Z,3.90
2019-02-20T11:56:52.264Z,4.70
2019-02-20T11:58:00.346Z,4.50
2019-02-20T11:58:53.197Z,4.30
2019-02-20T11:59:52.158Z,4.30
2019-02-20T12:00:52.149Z,3.90
2019-02-20T12:01:52.136Z,4.40
2019-02-20T12:02:52.177Z,3.90
2019-02-20T12:03:52.113Z,4.20
2019-02-20T12:04:52.109Z,3.30
2019-02-20T12:05:52.127Z,3.50
2019-02-20T12:06:52.107Z,3.90
2019-02-20T12:07:52.075Z,3.50
2019-02-20T12:08:52.113Z,3.90
2019-02-20T12:09:52.093Z,4.20
2019-02-20T12:10:52.046Z,4.20
2019-02-20T12:11:52.027Z,3.70
2019-02-20T12:12:52.014Z,4.10
2019-02-20T12:13:52.006Z,3.20
2019-02-20T12:14:52.042Z,3.50
2019-02-20T12:15:52.000Z,3.40
2019-02-20T12:16:51.977Z,3.80
2019-02-20T12:17:51.969Z,3.70
2019-02-20T12:18:51.945Z,3.90
2019-02-20T12:19:51.944Z,4.50
2019-02-20T12:20:51.969Z,3.60
2019-02-20T12:21:51.927Z,3.70
2019-02-20T12:22:51.909Z,4.30
2019-02-20T12:23:51.907Z,4.40
2019-02-20T12:24:51.901Z,3.30
2019-02-20T12:25:51.883Z,3.70
2019-02-20T12:26:51.921Z,4.00
2019-02-20T12:27:51.863Z,3.50
2019-02-20T12:28:51.844Z,3.70
2019-02-20T12:29:51.858Z,4.00
2019-02-20T12:30:51.819Z,3.30
2019-02-20T12:31:52.665Z,3.70
2019-02-20T12:32:51.850Z,4.50
2019-02-20T12:33:52.346Z,4.50
2019-02-20T12:34:51.773Z,3.80
2019-02-20T12:35:51.780Z,4.20
2019-02-20T12:36:51.751Z,3.50
2019-02-20T12:37:51.753Z,4.50
2019-02-20T12:38:51.780Z,4.00
2019-02-20T12:39:51.722Z,3.80
2019-02-20T12:40:51.713Z,4.10
2019-02-20T12:41:51.713Z,4.20
2019-02-20T12:42:51.753Z,3.60
2019-02-20T12:43:51.689Z,3.30
2019-02-20T12:44:51.676Z,3.40
2019-02-20T12:45:51.665Z,4.00
2019-02-20T12:46:51.647Z,3.60
2019-02-20T12:47:51.643Z,3.60
2019-02-20T12:48:51.677Z,3.60
2019-02-20T12:49:51.631Z,4.20
2019-02-20T12:50:51.600Z,3.40
2019-02-20T12:51:51.628Z,3.70
2019-02-20T12:52:51.588Z,3.30
2019-02-20T12:53:51.562Z,4.60
2019-02-20T12:54:51.617Z,3.80
2019-02-20T12:55:51.545Z,3.90
2019-02-20T12:56:51.550Z,3.80
2019-02-20T12:57:51.533Z,3.40
2019-02-20T12:58:51.538Z,3.20
2019-02-20T12:59:51.489Z,4.00
2019-02-20T13:00:51.551Z,3.20
2019-02-20T13:01:51.505Z,3.70
2019-02-20T13:02:51.481Z,3.30
2019-02-20T13:03:51.463Z,3.30
2019-02-20T13:04:51.467Z,3.60
2019-02-20T13:05:51.474Z,4.00
2019-02-20T13:06:59.286Z,4.70
2019-02-20T13:07:52.426Z,3.80
2019-02-20T13:08:51.419Z,3.30
2019-02-20T13:09:51.395Z,3.20
2019-02-20T13:10:51.377Z,3.50
2019-02-20T13:11:51.386Z,3.30
2019-02-20T13:12:51.439Z,3.50
2019-02-20T13:13:51.356Z,3.10
2019-02-20T13:14:51.399Z,3.30
2019-02-20T13:15:51.337Z,3.10
2019-02-20T13:16:51.315Z,4.30
2019-02-20T13:17:51.331Z,3.40